sensor_id;sensor_type;location;lat;lon;timestamp;P1;durP1;ratioP1;P2;durP2;ratioP2
29092;SDS011;16167;48.768;14.984;2022-08-19T00:02:03;4.25;;;2.47;;
29092;SDS011;16167;48.768;14.984;2022-08-19T00:04:32;11.25;;;2.70;;
29092;SDS011;16167;48.768;14.984;2022-08-19T00:07:03;4.20;;;2.40;;
29092;SDS011;16167;48.768;14.984;2022-08-19T00:09:32;6.43;;;2.22;;
29092;SDS011;16167;48.768;14.984;2022-08-19T00:14:33;5.68;;;2.63;;
29092;SDS011;16167;48.768;14.984;2022-08-19T00:17:02;6.95;;;2.72;;
29092;SDS011;16167;48.768;14.984;2022-08-19T00:19:48;8.85;;;2.97;;
29092;SDS011;16167;48.768;14.984;2022-08-19T00:22:16;6.53;;;2.67;;
29092;SDS011;16167;48.768;14.984;2022-08-19T00:24:44;9.57;;;3.20;;
29092;SDS011;16167;48.768;14.984;2022-08-19T00:27:16;8.07;;;2.72;;
29092;SDS011;16167;48.768;14.984;2022-08-19T00:29:52;8.45;;;2.60;;
29092;SDS011;16167;48.768;14.984;2022-08-19T00:35:05;4.82;;;2.40;;
29092;SDS011;16167;48.768;14.984;2022-08-19T00:37:34;5.85;;;2.83;;
29092;SDS011;16167;48.768;14.984;2022-08-19T00:40:03;7.75;;;3.08;;
29092;SDS011;16167;48.768;14.984;2022-08-19T00:42:32;10.20;;;2.67;;
29092;SDS011;16167;48.768;14.984;2022-08-19T00:45:02;6.20;;;2.55;;
29092;SDS011;16167;48.768;14.984;2022-08-19T00:47:38;7.15;;;2.78;;
29092;SDS011;16167;48.768;14.984;2022-08-19T00:50:20;9.35;;;2.58;;
29092;SDS011;16167;48.768;14.984;2022-08-19T00:52:49;5.05;;;2.50;;
29092;SDS011;16167;48.768;14.984;2022-08-19T00:55:21;6.93;;;3.10;;
29092;SDS011;16167;48.768;14.984;2022-08-19T00:57:55;4.75;;;2.30;;
29092;SDS011;16167;48.768;14.984;2022-08-19T01:00:35;8.05;;;3.30;;
29092;SDS011;16167;48.768;14.984;2022-08-19T01:03:14;6.90;;;3.17;;
29092;SDS011;16167;48.768;14.984;2022-08-19T01:05:50;9.18;;;3.40;;
29092;SDS011;16167;48.768;14.984;2022-08-19T01:08:21;7.20;;;2.90;;
29092;SDS011;16167;48.768;14.984;2022-08-19T01:10:56;6.43;;;3.03;;
29092;SDS011;16167;48.768;14.984;2022-08-19T01:13:30;7.30;;;3.20;;
29092;SDS011;16167;48.768;14.984;2022-08-19T01:16:16;6.50;;;3.50;;
29092;SDS011;16167;48.768;14.984;2022-08-19T01:18:47;8.13;;;3.22;;
29092;SDS011;16167;48.768;14.984;2022-08-19T01:21:17;8.60;;;4.00;;
29092;SDS011;16167;48.768;14.984;2022-08-19T01:23:50;7.22;;;3.55;;
29092;SDS011;16167;48.768;14.984;2022-08-19T01:26:19;9.95;;;3.38;;
29092;SDS011;16167;48.768;14.984;2022-08-19T01:28:52;9.52;;;3.05;;
29092;SDS011;16167;48.768;14.984;2022-08-19T01:31:25;8.57;;;3.00;;
29092;SDS011;16167;48.768;14.984;2022-08-19T01:33:58;4.95;;;3.45;;
29092;SDS011;16167;48.768;14.984;2022-08-19T01:36:29;9.23;;;2.88;;
29092;SDS011;16167;48.768;14.984;2022-08-19T01:39:01;7.43;;;3.00;;
29092;SDS011;16167;48.768;14.984;2022-08-19T01:41:31;7.35;;;3.17;;
29092;SDS011;16167;48.768;14.984;2022-08-19T01:44:00;7.93;;;2.93;;
29092;SDS011;16167;48.768;14.984;2022-08-19T01:46:45;8.60;;;3.13;;
29092;SDS011;16167;48.768;14.984;2022-08-19T01:49:16;6.32;;;2.85;;
29092;SDS011;16167;48.768;14.984;2022-08-19T01:52:00;6.57;;;2.58;;
29092;SDS011;16167;48.768;14.984;2022-08-19T01:54:44;6.15;;;3.00;;
29092;SDS011;16167;48.768;14.984;2022-08-19T01:57:16;6.43;;;2.65;;
29092;SDS011;16167;48.768;14.984;2022-08-19T01:59:44;9.15;;;3.58;;
29092;SDS011;16167;48.768;14.984;2022-08-19T02:02:13;6.53;;;2.75;;
29092;SDS011;16167;48.768;14.984;2022-08-19T02:04:41;7.70;;;2.78;;
29092;SDS011;16167;48.768;14.984;2022-08-19T02:07:09;4.97;;;2.80;;
29092;SDS011;16167;48.768;14.984;2022-08-19T02:09:37;9.05;;;2.67;;
29092;SDS011;16167;48.768;14.984;2022-08-19T02:12:11;6.30;;;3.28;;
29092;SDS011;16167;48.768;14.984;2022-08-19T02:14:39;5.03;;;3.10;;
29092;SDS011;16167;48.768;14.984;2022-08-19T02:17:08;7.57;;;3.08;;
29092;SDS011;16167;48.768;14.984;2022-08-19T02:19:38;9.85;;;3.13;;
29092;SDS011;16167;48.768;14.984;2022-08-19T02:22:06;5.07;;;2.58;;
29092;SDS011;16167;48.768;14.984;2022-08-19T02:24:37;4.28;;;2.60;;
29092;SDS011;16167;48.768;14.984;2022-08-19T02:27:07;9.82;;;3.10;;
29092;SDS011;16167;48.768;14.984;2022-08-19T02:29:35;5.05;;;3.45;;
29092;SDS011;16167;48.768;14.984;2022-08-19T02:32:03;7.93;;;3.05;;
29092;SDS011;16167;48.768;14.984;2022-08-19T02:34:33;7.13;;;3.20;;
29092;SDS011;16167;48.768;14.984;2022-08-19T02:37:01;7.85;;;2.90;;
29092;SDS011;16167;48.768;14.984;2022-08-19T02:39:29;9.40;;;3.30;;
29092;SDS011;16167;48.768;14.984;2022-08-19T02:41:57;5.03;;;2.92;;
29092;SDS011;16167;48.768;14.984;2022-08-19T02:44:29;8.02;;;3.47;;
29092;SDS011;16167;48.768;14.984;2022-08-19T02:46:57;7.00;;;3.38;;
29092;SDS011;16167;48.768;14.984;2022-08-19T02:49:27;9.07;;;3.33;;
29092;SDS011;16167;48.768;14.984;2022-08-19T02:52:00;7.15;;;3.30;;
29092;SDS011;16167;48.768;14.984;2022-08-19T02:54:33;6.30;;;3.25;;
29092;SDS011;16167;48.768;14.984;2022-08-19T02:57:16;6.47;;;3.08;;
29092;SDS011;16167;48.768;14.984;2022-08-19T03:02:42;8.15;;;2.92;;
29092;SDS011;16167;48.768;14.984;2022-08-19T03:05:12;6.25;;;3.33;;
29092;SDS011;16167;48.768;14.984;2022-08-19T03:07:40;5.93;;;3.10;;
29092;SDS011;16167;48.768;14.984;2022-08-19T03:10:09;7.03;;;3.45;;
29092;SDS011;16167;48.768;14.984;2022-08-19T03:12:38;9.50;;;3.25;;
29092;SDS011;16167;48.768;14.984;2022-08-19T03:15:07;8.18;;;3.45;;
29092;SDS011;16167;48.768;14.984;2022-08-19T03:20:05;13.45;;;3.35;;
29092;SDS011;16167;48.768;14.984;2022-08-19T03:22:34;5.50;;;2.88;;
29092;SDS011;16167;48.768;14.984;2022-08-19T03:25:02;5.72;;;3.63;;
29092;SDS011;16167;48.768;14.984;2022-08-19T03:27:31;6.60;;;3.07;;
29092;SDS011;16167;48.768;14.984;2022-08-19T03:30:00;9.27;;;3.78;;
29092;SDS011;16167;48.768;14.984;2022-08-19T03:32:32;9.30;;;4.07;;
29092;SDS011;16167;48.768;14.984;2022-08-19T03:35:08;7.55;;;3.33;;
29092;SDS011;16167;48.768;14.984;2022-08-19T03:40:06;7.40;;;3.35;;
29092;SDS011;16167;48.768;14.984;2022-08-19T03:42:42;7.85;;;3.50;;
29092;SDS011;16167;48.768;14.984;2022-08-19T03:45:15;8.95;;;4.18;;
29092;SDS011;16167;48.768;14.984;2022-08-19T03:47:43;7.25;;;3.75;;
29092;SDS011;16167;48.768;14.984;2022-08-19T03:50:14;13.32;;;3.97;;
29092;SDS011;16167;48.768;14.984;2022-08-19T03:52:42;5.18;;;3.08;;
29092;SDS011;16167;48.768;14.984;2022-08-19T03:55:30;6.53;;;3.47;;
29092;SDS011;16167;48.768;14.984;2022-08-19T03:58:00;7.05;;;3.90;;
29092;SDS011;16167;48.768;14.984;2022-08-19T04:00:28;11.13;;;3.50;;
29092;SDS011;16167;48.768;14.984;2022-08-19T04:02:57;4.75;;;3.08;;
29092;SDS011;16167;48.768;14.984;2022-08-19T04:05:28;6.03;;;3.15;;
29092;SDS011;16167;48.768;14.984;2022-08-19T04:07:56;9.48;;;3.83;;
29092;SDS011;16167;48.768;14.984;2022-08-19T04:10:28;7.45;;;2.85;;
29092;SDS011;16167;48.768;14.984;2022-08-19T04:15:24;10.68;;;3.83;;
29092;SDS011;16167;48.768;14.984;2022-08-19T04:17:52;10.00;;;4.03;;
29092;SDS011;16167;48.768;14.984;2022-08-19T04:20:40;7.60;;;4.13;;
29092;SDS011;16167;48.768;14.984;2022-08-19T04:23:14;6.57;;;3.83;;
29092;SDS011;16167;48.768;14.984;2022-08-19T04:25:43;5.25;;;3.65;;
29092;SDS011;16167;48.768;14.984;2022-08-19T04:28:12;10.57;;;4.40;;
29092;SDS011;16167;48.768;14.984;2022-08-19T04:30:41;12.17;;;4.93;;
29092;SDS011;16167;48.768;14.984;2022-08-19T04:33:11;9.20;;;3.85;;
29092;SDS011;16167;48.768;14.984;2022-08-19T04:35:56;14.73;;;4.63;;
29092;SDS011;16167;48.768;14.984;2022-08-19T04:38:27;5.22;;;3.38;;
29092;SDS011;16167;48.768;14.984;2022-08-19T04:40:55;8.10;;;3.88;;
29092;SDS011;16167;48.768;14.984;2022-08-19T04:43:40;8.13;;;3.70;;
29092;SDS011;16167;48.768;14.984;2022-08-19T04:46:12;11.75;;;5.05;;
29092;SDS011;16167;48.768;14.984;2022-08-19T04:51:42;7.95;;;3.25;;
29092;SDS011;16167;48.768;14.984;2022-08-19T04:54:14;8.00;;;3.33;;
29092;SDS011;16167;48.768;14.984;2022-08-19T04:57:05;6.00;;;4.13;;
29092;SDS011;16167;48.768;14.984;2022-08-19T04:59:49;6.85;;;3.53;;
29092;SDS011;16167;48.768;14.984;2022-08-19T05:02:21;7.82;;;4.22;;
29092;SDS011;16167;48.768;14.984;2022-08-19T05:05:04;6.35;;;3.45;;
29092;SDS011;16167;48.768;14.984;2022-08-19T05:07:37;7.82;;;4.05;;
29092;SDS011;16167;48.768;14.984;2022-08-19T05:10:07;10.70;;;4.78;;
29092;SDS011;16167;48.768;14.984;2022-08-19T05:12:37;8.98;;;4.03;;
29092;SDS011;16167;48.768;14.984;2022-08-19T05:15:06;11.98;;;4.78;;
29092;SDS011;16167;48.768;14.984;2022-08-19T05:17:35;8.52;;;4.15;;
29092;SDS011;16167;48.768;14.984;2022-08-19T05:20:07;10.88;;;4.72;;
29092;SDS011;16167;48.768;14.984;2022-08-19T05:22:55;10.38;;;4.90;;
29092;SDS011;16167;48.768;14.984;2022-08-19T05:25:23;12.85;;;4.65;;
29092;SDS011;16167;48.768;14.984;2022-08-19T05:27:51;7.95;;;4.07;;
29092;SDS011;16167;48.768;14.984;2022-08-19T05:30:21;8.70;;;4.93;;
29092;SDS011;16167;48.768;14.984;2022-08-19T05:33:07;10.80;;;5.55;;
29092;SDS011;16167;48.768;14.984;2022-08-19T05:35:40;13.95;;;6.90;;
29092;SDS011;16167;48.768;14.984;2022-08-19T05:38:30;12.07;;;6.35;;
29092;SDS011;16167;48.768;14.984;2022-08-19T05:40:59;12.95;;;5.80;;
29092;SDS011;16167;48.768;14.984;2022-08-19T05:43:27;10.82;;;5.93;;
29092;SDS011;16167;48.768;14.984;2022-08-19T05:45:57;8.77;;;6.07;;
29092;SDS011;16167;48.768;14.984;2022-08-19T05:48:25;11.00;;;6.25;;
29092;SDS011;16167;48.768;14.984;2022-08-19T05:50:54;13.15;;;7.00;;
29092;SDS011;16167;48.768;14.984;2022-08-19T05:53:31;15.38;;;7.55;;
29092;SDS011;16167;48.768;14.984;2022-08-19T05:56:04;11.90;;;7.57;;
29092;SDS011;16167;48.768;14.984;2022-08-19T05:58:41;12.77;;;7.93;;
29092;SDS011;16167;48.768;14.984;2022-08-19T06:01:12;10.10;;;8.32;;
29092;SDS011;16167;48.768;14.984;2022-08-19T06:03:42;17.75;;;10.40;;
29092;SDS011;16167;48.768;14.984;2022-08-19T06:06:12;10.38;;;8.60;;
29092;SDS011;16167;48.768;14.984;2022-08-19T06:08:43;12.80;;;7.82;;
29092;SDS011;16167;48.768;14.984;2022-08-19T06:11:16;10.75;;;8.93;;
29092;SDS011;16167;48.768;14.984;2022-08-19T06:13:47;16.92;;;10.57;;
29092;SDS011;16167;48.768;14.984;2022-08-19T06:16:25;13.70;;;9.95;;
29092;SDS011;16167;48.768;14.984;2022-08-19T06:18:55;15.27;;;12.07;;
29092;SDS011;16167;48.768;14.984;2022-08-19T06:21:25;16.27;;;12.35;;
29092;SDS011;16167;48.768;14.984;2022-08-19T06:23:55;23.45;;;14.25;;
29092;SDS011;16167;48.768;14.984;2022-08-19T06:26:25;21.20;;;15.05;;
29092;SDS011;16167;48.768;14.984;2022-08-19T06:28:53;18.50;;;13.93;;
29092;SDS011;16167;48.768;14.984;2022-08-19T06:31:24;17.20;;;13.40;;
29092;SDS011;16167;48.768;14.984;2022-08-19T06:33:55;20.80;;;14.57;;
29092;SDS011;16167;48.768;14.984;2022-08-19T06:36:26;17.33;;;13.60;;
29092;SDS011;16167;48.768;14.984;2022-08-19T06:38:59;21.25;;;15.75;;
29092;SDS011;16167;48.768;14.984;2022-08-19T06:41:28;18.58;;;14.65;;
29092;SDS011;16167;48.768;14.984;2022-08-19T06:43:57;25.77;;;16.48;;
29092;SDS011;16167;48.768;14.984;2022-08-19T06:46:25;20.02;;;15.40;;
29092;SDS011;16167;48.768;14.984;2022-08-19T06:48:59;20.20;;;15.80;;
29092;SDS011;16167;48.768;14.984;2022-08-19T06:51:30;23.65;;;15.88;;
29092;SDS011;16167;48.768;14.984;2022-08-19T06:54:09;19.08;;;15.70;;
29092;SDS011;16167;48.768;14.984;2022-08-19T06:56:56;22.30;;;15.45;;
29092;SDS011;16167;48.768;14.984;2022-08-19T06:59:25;19.73;;;14.50;;
29092;SDS011;16167;48.768;14.984;2022-08-19T07:01:59;17.45;;;14.70;;
29092;SDS011;16167;48.768;14.984;2022-08-19T07:04:32;15.48;;;12.77;;
29092;SDS011;16167;48.768;14.984;2022-08-19T07:07:02;19.58;;;13.40;;
29092;SDS011;16167;48.768;14.984;2022-08-19T07:09:48;17.00;;;14.00;;
29092;SDS011;16167;48.768;14.984;2022-08-19T07:12:26;17.90;;;13.73;;
29092;SDS011;16167;48.768;14.984;2022-08-19T07:15:01;16.48;;;11.82;;
29092;SDS011;16167;48.768;14.984;2022-08-19T07:17:29;14.70;;;10.18;;
29092;SDS011;16167;48.768;14.984;2022-08-19T07:20:00;13.02;;;10.77;;
29092;SDS011;16167;48.768;14.984;2022-08-19T07:22:37;14.15;;;9.45;;
29092;SDS011;16167;48.768;14.984;2022-08-19T07:25:19;12.15;;;9.10;;
29092;SDS011;16167;48.768;14.984;2022-08-19T07:27:57;14.63;;;9.60;;
29092;SDS011;16167;48.768;14.984;2022-08-19T07:30:50;14.32;;;10.20;;
29092;SDS011;16167;48.768;14.984;2022-08-19T07:33:19;11.70;;;9.32;;
29092;SDS011;16167;48.768;14.984;2022-08-19T07:35:48;15.90;;;11.25;;
29092;SDS011;16167;48.768;14.984;2022-08-19T07:38:21;15.52;;;10.55;;
29092;SDS011;16167;48.768;14.984;2022-08-19T07:43:20;15.15;;;11.80;;
29092;SDS011;16167;48.768;14.984;2022-08-19T07:46:03;19.13;;;12.65;;
29092;SDS011;16167;48.768;14.984;2022-08-19T07:48:31;15.52;;;13.20;;
29092;SDS011;16167;48.768;14.984;2022-08-19T07:51:08;16.50;;;12.15;;
29092;SDS011;16167;48.768;14.984;2022-08-19T07:53:39;19.25;;;14.00;;
29092;SDS011;16167;48.768;14.984;2022-08-19T07:58:55;16.42;;;13.43;;
29092;SDS011;16167;48.768;14.984;2022-08-19T08:01:29;16.35;;;12.07;;
29092;SDS011;16167;48.768;14.984;2022-08-19T08:04:06;14.48;;;12.90;;
29092;SDS011;16167;48.768;14.984;2022-08-19T08:06:52;15.88;;;12.52;;
29092;SDS011;16167;48.768;14.984;2022-08-19T08:09:39;17.55;;;12.73;;
29092;SDS011;16167;48.768;14.984;2022-08-19T08:12:15;15.45;;;13.75;;
29092;SDS011;16167;48.768;14.984;2022-08-19T08:15:03;14.50;;;12.52;;
29092;SDS011;16167;48.768;14.984;2022-08-19T08:17:43;14.35;;;12.50;;
29092;SDS011;16167;48.768;14.984;2022-08-19T08:20:17;14.32;;;12.80;;
29092;SDS011;16167;48.768;14.984;2022-08-19T08:22:46;16.27;;;13.40;;
29092;SDS011;16167;48.768;14.984;2022-08-19T08:25:33;13.98;;;11.43;;
29092;SDS011;16167;48.768;14.984;2022-08-19T08:28:14;12.45;;;11.05;;
29092;SDS011;16167;48.768;14.984;2022-08-19T08:30:43;13.33;;;10.53;;
29092;SDS011;16167;48.768;14.984;2022-08-19T08:33:16;13.48;;;11.32;;
29092;SDS011;16167;48.768;14.984;2022-08-19T08:36:02;13.52;;;10.77;;
29092;SDS011;16167;48.768;14.984;2022-08-19T08:38:32;13.50;;;11.55;;
29092;SDS011;16167;48.768;14.984;2022-08-19T08:41:09;15.13;;;12.70;;
29092;SDS011;16167;48.768;14.984;2022-08-19T08:43:48;17.02;;;11.88;;
29092;SDS011;16167;48.768;14.984;2022-08-19T08:46:19;13.77;;;11.50;;
29092;SDS011;16167;48.768;14.984;2022-08-19T08:48:58;13.45;;;11.20;;
29092;SDS011;16167;48.768;14.984;2022-08-19T08:51:37;12.55;;;9.23;;
29092;SDS011;16167;48.768;14.984;2022-08-19T08:54:10;12.27;;;10.60;;
29092;SDS011;16167;48.768;14.984;2022-08-19T08:56:41;12.82;;;11.55;;
29092;SDS011;16167;48.768;14.984;2022-08-19T08:59:15;13.80;;;11.07;;
29092;SDS011;16167;48.768;14.984;2022-08-19T09:01:48;14.98;;;11.93;;
29092;SDS011;16167;48.768;14.984;2022-08-19T09:04:16;11.32;;;10.23;;
29092;SDS011;16167;48.768;14.984;2022-08-19T09:06:46;11.90;;;9.80;;
29092;SDS011;16167;48.768;14.984;2022-08-19T09:09:21;13.25;;;11.88;;
29092;SDS011;16167;48.768;14.984;2022-08-19T09:12:00;15.48;;;10.98;;
29092;SDS011;16167;48.768;14.984;2022-08-19T09:14:42;11.55;;;10.45;;
29092;SDS011;16167;48.768;14.984;2022-08-19T09:17:17;13.55;;;11.20;;
29092;SDS011;16167;48.768;14.984;2022-08-19T09:20:15;11.82;;;10.57;;
29092;SDS011;16167;48.768;14.984;2022-08-19T09:22:47;11.93;;;10.52;;
29092;SDS011;16167;48.768;14.984;2022-08-19T09:25:22;13.32;;;11.30;;
29092;SDS011;16167;48.768;14.984;2022-08-19T09:27:55;11.20;;;10.10;;
29092;SDS011;16167;48.768;14.984;2022-08-19T09:30:49;12.13;;;10.63;;
29092;SDS011;16167;48.768;14.984;2022-08-19T09:33:19;11.90;;;10.68;;
29092;SDS011;16167;48.768;14.984;2022-08-19T09:35:48;13.68;;;10.63;;
29092;SDS011;16167;48.768;14.984;2022-08-19T09:38:19;14.00;;;9.85;;
29092;SDS011;16167;48.768;14.984;2022-08-19T09:40:47;10.68;;;9.68;;
29092;SDS011;16167;48.768;14.984;2022-08-19T09:43:17;12.80;;;10.23;;
29092;SDS011;16167;48.768;14.984;2022-08-19T09:46:00;14.35;;;10.52;;
29092;SDS011;16167;48.768;14.984;2022-08-19T09:48:30;12.23;;;9.32;;
29092;SDS011;16167;48.768;14.984;2022-08-19T09:51:02;9.17;;;8.23;;
29092;SDS011;16167;48.768;14.984;2022-08-19T09:53:31;11.23;;;9.60;;
29092;SDS011;16167;48.768;14.984;2022-08-19T09:55:59;13.20;;;8.70;;
29092;SDS011;16167;48.768;14.984;2022-08-19T09:58:29;10.15;;;8.57;;
29092;SDS011;16167;48.768;14.984;2022-08-19T10:01:01;11.30;;;8.27;;
29092;SDS011;16167;48.768;14.984;2022-08-19T10:03:32;11.05;;;9.25;;
29092;SDS011;16167;48.768;14.984;2022-08-19T10:06:03;10.93;;;8.70;;
29092;SDS011;16167;48.768;14.984;2022-08-19T10:08:40;11.85;;;8.40;;
29092;SDS011;16167;48.768;14.984;2022-08-19T10:11:15;10.27;;;8.77;;
29092;SDS011;16167;48.768;14.984;2022-08-19T10:14:03;10.90;;;9.20;;
29092;SDS011;16167;48.768;14.984;2022-08-19T10:16:44;10.88;;;9.57;;
29092;SDS011;16167;48.768;14.984;2022-08-19T10:19:47;11.95;;;8.80;;
29092;SDS011;16167;48.768;14.984;2022-08-19T10:22:23;11.25;;;9.15;;
29092;SDS011;16167;48.768;14.984;2022-08-19T10:24:52;9.48;;;8.20;;
29092;SDS011;16167;48.768;14.984;2022-08-19T10:27:20;10.65;;;8.52;;
29092;SDS011;16167;48.768;14.984;2022-08-19T10:29:48;14.20;;;8.80;;
29092;SDS011;16167;48.768;14.984;2022-08-19T10:32:18;10.30;;;8.38;;
29092;SDS011;16167;48.768;14.984;2022-08-19T10:34:59;11.70;;;8.20;;
29092;SDS011;16167;48.768;14.984;2022-08-19T10:37:31;10.90;;;8.55;;
29092;SDS011;16167;48.768;14.984;2022-08-19T10:42:29;9.23;;;7.15;;
29092;SDS011;16167;48.768;14.984;2022-08-19T10:44:59;8.65;;;7.75;;
29092;SDS011;16167;48.768;14.984;2022-08-19T10:47:31;10.55;;;8.05;;
29092;SDS011;16167;48.768;14.984;2022-08-19T10:50:00;14.38;;;8.40;;
29092;SDS011;16167;48.768;14.984;2022-08-19T10:52:53;9.15;;;7.40;;
29092;SDS011;16167;48.768;14.984;2022-08-19T10:55:23;8.45;;;7.25;;
29092;SDS011;16167;48.768;14.984;2022-08-19T10:58:09;9.73;;;7.38;;
29092;SDS011;16167;48.768;14.984;2022-08-19T11:00:39;11.73;;;6.93;;
29092;SDS011;16167;48.768;14.984;2022-08-19T11:03:10;11.38;;;6.03;;
29092;SDS011;16167;48.768;14.984;2022-08-19T11:05:38;8.23;;;5.85;;
29092;SDS011;16167;48.768;14.984;2022-08-19T11:08:09;7.03;;;5.88;;
29092;SDS011;16167;48.768;14.984;2022-08-19T11:10:48;12.43;;;6.55;;
29092;SDS011;16167;48.768;14.984;2022-08-19T11:13:19;8.93;;;5.28;;
29092;SDS011;16167;48.768;14.984;2022-08-19T11:15:55;10.63;;;4.55;;
29092;SDS011;16167;48.768;14.984;2022-08-19T11:18:31;12.40;;;4.78;;
29092;SDS011;16167;48.768;14.984;2022-08-19T11:21:07;9.23;;;5.00;;
29092;SDS011;16167;48.768;14.984;2022-08-19T11:23:46;12.90;;;6.30;;
29092;SDS011;16167;48.768;14.984;2022-08-19T11:26:16;7.55;;;5.65;;
29092;SDS011;16167;48.768;14.984;2022-08-19T11:28:46;8.15;;;5.93;;
29092;SDS011;16167;48.768;14.984;2022-08-19T11:31:20;8.45;;;5.60;;
29092;SDS011;16167;48.768;14.984;2022-08-19T11:33:56;9.13;;;5.53;;
29092;SDS011;16167;48.768;14.984;2022-08-19T11:36:26;10.13;;;5.25;;
29092;SDS011;16167;48.768;14.984;2022-08-19T11:38:57;8.85;;;6.03;;
29092;SDS011;16167;48.768;14.984;2022-08-19T11:41:26;7.85;;;5.38;;
29092;SDS011;16167;48.768;14.984;2022-08-19T11:43:54;7.88;;;5.88;;
29092;SDS011;16167;48.768;14.984;2022-08-19T11:46:23;10.15;;;5.90;;
29092;SDS011;16167;48.768;14.984;2022-08-19T11:48:57;8.93;;;5.55;;
29092;SDS011;16167;48.768;14.984;2022-08-19T11:51:27;8.27;;;5.05;;
29092;SDS011;16167;48.768;14.984;2022-08-19T11:53:56;8.07;;;5.28;;
29092;SDS011;16167;48.768;14.984;2022-08-19T11:56:27;7.63;;;5.60;;
29092;SDS011;16167;48.768;14.984;2022-08-19T11:58:56;9.30;;;5.70;;
29092;SDS011;16167;48.768;14.984;2022-08-19T12:01:25;6.28;;;4.63;;
29092;SDS011;16167;48.768;14.984;2022-08-19T12:03:54;7.63;;;4.93;;
29092;SDS011;16167;48.768;14.984;2022-08-19T12:06:26;7.72;;;5.57;;
29092;SDS011;16167;48.768;14.984;2022-08-19T12:08:56;7.38;;;5.70;;
29092;SDS011;16167;48.768;14.984;2022-08-19T12:11:30;9.23;;;5.60;;
29092;SDS011;16167;48.768;14.984;2022-08-19T12:14:00;10.00;;;5.70;;
29092;SDS011;16167;48.768;14.984;2022-08-19T12:16:40;8.63;;;5.55;;
29092;SDS011;16167;48.768;14.984;2022-08-19T12:19:18;7.75;;;5.10;;
29092;SDS011;16167;48.768;14.984;2022-08-19T12:21:49;7.30;;;5.18;;
29092;SDS011;16167;48.768;14.984;2022-08-19T12:24:19;7.97;;;5.32;;
29092;SDS011;16167;48.768;14.984;2022-08-19T12:26:49;7.30;;;5.20;;
29092;SDS011;16167;48.768;14.984;2022-08-19T12:29:28;8.63;;;5.20;;
29092;SDS011;16167;48.768;14.984;2022-08-19T12:31:58;7.20;;;5.03;;
29092;SDS011;16167;48.768;14.984;2022-08-19T12:34:31;7.97;;;5.10;;
29092;SDS011;16167;48.768;14.984;2022-08-19T12:37:01;10.25;;;5.70;;
29092;SDS011;16167;48.768;14.984;2022-08-19T12:39:33;7.50;;;5.70;;
29092;SDS011;16167;48.768;14.984;2022-08-19T12:42:02;8.18;;;4.78;;
29092;SDS011;16167;48.768;14.984;2022-08-19T12:44:32;9.32;;;5.32;;
29092;SDS011;16167;48.768;14.984;2022-08-19T12:47:01;6.63;;;4.65;;
29092;SDS011;16167;48.768;14.984;2022-08-19T12:49:34;8.68;;;4.72;;
29092;SDS011;16167;48.768;14.984;2022-08-19T12:52:20;6.60;;;5.00;;
29092;SDS011;16167;48.768;14.984;2022-08-19T12:54:49;9.40;;;5.05;;
29092;SDS011;16167;48.768;14.984;2022-08-19T12:57:20;6.50;;;4.35;;
29092;SDS011;16167;48.768;14.984;2022-08-19T12:59:59;9.33;;;4.97;;
29092;SDS011;16167;48.768;14.984;2022-08-19T13:02:30;8.75;;;5.22;;
29092;SDS011;16167;48.768;14.984;2022-08-19T13:05:07;10.05;;;5.00;;
29092;SDS011;16167;48.768;14.984;2022-08-19T13:07:37;10.55;;;4.57;;
29092;SDS011;16167;48.768;14.984;2022-08-19T13:10:10;6.93;;;4.85;;
29092;SDS011;16167;48.768;14.984;2022-08-19T13:12:39;9.43;;;4.72;;
29092;SDS011;16167;48.768;14.984;2022-08-19T13:15:09;6.95;;;4.63;;
29092;SDS011;16167;48.768;14.984;2022-08-19T13:17:40;7.32;;;4.63;;
29092;SDS011;16167;48.768;14.984;2022-08-19T13:20:14;7.63;;;4.82;;
29092;SDS011;16167;48.768;14.984;2022-08-19T13:22:45;8.60;;;4.20;;
29092;SDS011;16167;48.768;14.984;2022-08-19T13:25:15;8.38;;;4.38;;
29092;SDS011;16167;48.768;14.984;2022-08-19T13:27:46;5.55;;;4.53;;
29092;SDS011;16167;48.768;14.984;2022-08-19T13:30:15;7.60;;;4.22;;
29092;SDS011;16167;48.768;14.984;2022-08-19T13:33:03;7.50;;;5.00;;
29092;SDS011;16167;48.768;14.984;2022-08-19T13:35:43;8.73;;;5.13;;
29092;SDS011;16167;48.768;14.984;2022-08-19T13:38:14;8.23;;;5.20;;
29092;SDS011;16167;48.768;14.984;2022-08-19T13:40:46;6.97;;;5.43;;
29092;SDS011;16167;48.768;14.984;2022-08-19T13:43:16;7.97;;;5.50;;
29092;SDS011;16167;48.768;14.984;2022-08-19T13:45:49;8.80;;;6.15;;
29092;SDS011;16167;48.768;14.984;2022-08-19T13:48:22;9.38;;;5.45;;
29092;SDS011;16167;48.768;14.984;2022-08-19T13:50:54;8.45;;;5.20;;
29092;SDS011;16167;48.768;14.984;2022-08-19T13:53:27;6.68;;;5.00;;
29092;SDS011;16167;48.768;14.984;2022-08-19T13:56:25;9.55;;;5.95;;
29092;SDS011;16167;48.768;14.984;2022-08-19T13:58:53;9.32;;;5.63;;
29092;SDS011;16167;48.768;14.984;2022-08-19T14:01:24;10.43;;;6.15;;
29092;SDS011;16167;48.768;14.984;2022-08-19T14:04:01;8.13;;;5.90;;
29092;SDS011;16167;48.768;14.984;2022-08-19T14:06:29;8.40;;;5.53;;
29092;SDS011;16167;48.768;14.984;2022-08-19T14:08:59;9.07;;;5.47;;
29092;SDS011;16167;48.768;14.984;2022-08-19T14:11:29;10.70;;;5.55;;
29092;SDS011;16167;48.768;14.984;2022-08-19T14:13:57;8.95;;;5.68;;
29092;SDS011;16167;48.768;14.984;2022-08-19T14:16:25;11.40;;;5.43;;
29092;SDS011;16167;48.768;14.984;2022-08-19T14:18:56;8.45;;;5.80;;
29092;SDS011;16167;48.768;14.984;2022-08-19T14:21:24;8.73;;;5.53;;
29092;SDS011;16167;48.768;14.984;2022-08-19T14:23:52;11.00;;;5.45;;
29092;SDS011;16167;48.768;14.984;2022-08-19T14:26:23;12.75;;;5.57;;
29092;SDS011;16167;48.768;14.984;2022-08-19T14:28:53;14.88;;;5.93;;
29092;SDS011;16167;48.768;14.984;2022-08-19T14:31:23;15.90;;;5.82;;
29092;SDS011;16167;48.768;14.984;2022-08-19T14:33:56;16.63;;;5.80;;
29092;SDS011;16167;48.768;14.984;2022-08-19T14:36:24;9.73;;;5.73;;
29092;SDS011;16167;48.768;14.984;2022-08-19T14:38:53;11.57;;;5.57;;
29092;SDS011;16167;48.768;14.984;2022-08-19T14:41:22;13.50;;;6.43;;
29092;SDS011;16167;48.768;14.984;2022-08-19T14:43:51;10.98;;;5.70;;
29092;SDS011;16167;48.768;14.984;2022-08-19T14:46:23;13.85;;;5.70;;
29092;SDS011;16167;48.768;14.984;2022-08-19T14:48:55;10.05;;;5.57;;
29092;SDS011;16167;48.768;14.984;2022-08-19T14:51:25;8.82;;;5.68;;
29092;SDS011;16167;48.768;14.984;2022-08-19T14:53:54;11.20;;;6.28;;
29092;SDS011;16167;48.768;14.984;2022-08-19T14:56:23;13.70;;;6.30;;
29092;SDS011;16167;48.768;14.984;2022-08-19T14:58:55;11.05;;;6.57;;
29092;SDS011;16167;48.768;14.984;2022-08-19T15:01:26;13.10;;;6.97;;
29092;SDS011;16167;48.768;14.984;2022-08-19T15:03:56;11.67;;;5.73;;
29092;SDS011;16167;48.768;14.984;2022-08-19T15:06:24;8.07;;;5.80;;
29092;SDS011;16167;48.768;14.984;2022-08-19T15:08:55;14.05;;;6.60;;
29092;SDS011;16167;48.768;14.984;2022-08-19T15:11:29;10.10;;;6.13;;
29092;SDS011;16167;48.768;14.984;2022-08-19T15:14:00;17.95;;;6.40;;
29092;SDS011;16167;48.768;14.984;2022-08-19T15:16:28;14.75;;;6.47;;
29092;SDS011;16167;48.768;14.984;2022-08-19T15:18:57;11.83;;;7.17;;
29092;SDS011;16167;48.768;14.984;2022-08-19T15:21:26;11.88;;;6.60;;
29092;SDS011;16167;48.768;14.984;2022-08-19T15:23:57;13.10;;;5.90;;
29092;SDS011;16167;48.768;14.984;2022-08-19T15:26:25;9.25;;;6.32;;